createdAt,value
2022-12-05T00:00:35.385Z,98.86
2022-12-05T00:02:38.471Z,98.37
2022-12-05T00:04:44.157Z,98.51
2022-12-05T00:06:47.180Z,98.33
2022-12-05T00:08:50.487Z,98.18
2022-12-05T00:10:53.484Z,97.96
2022-12-05T00:12:56.529Z,98.31
2022-12-05T00:14:59.580Z,98.18
2022-12-05T00:17:02.730Z,98.62
2022-12-05T00:19:07.002Z,98.92
2022-12-05T00:21:16.337Z,98.79
2022-12-05T00:23:19.246Z,99.22
2022-12-05T00:25:22.250Z,99.24
2022-12-05T00:27:25.198Z,99.42
2022-12-05T00:29:28.169Z,99.30
2022-12-05T00:31:31.261Z,99.50
2022-12-05T00:33:34.397Z,99.15
2022-12-05T00:35:37.389Z,99.82
2022-12-05T00:37:41.714Z,99.65
2022-12-05T00:39:44.857Z,100.00
2022-12-05T00:41:47.805Z,99.86
2022-12-05T00:43:51.330Z,99.69
2022-12-05T00:45:54.381Z,99.43
2022-12-05T00:47:57.376Z,99.22
2022-12-05T00:50:00.550Z,99.23
2022-12-05T00:52:03.597Z,99.02
2022-12-05T00:54:10.740Z,98.80
2022-12-05T00:56:16.759Z,98.91
2022-12-05T00:58:19.764Z,99.34
2022-12-05T01:00:22.754Z,98.42
2022-12-05T01:02:25.795Z,98.12
2022-12-05T01:04:28.863Z,99.05
2022-12-05T01:06:32.885Z,98.45
2022-12-05T01:08:36.721Z,97.72
2022-12-05T01:10:41.006Z,98.28
2022-12-05T01:12:44.162Z,98.38
2022-12-05T01:14:47.198Z,98.44
2022-12-05T01:16:51.759Z,97.53
2022-12-05T01:18:55.232Z,98.15
2022-12-05T01:20:58.466Z,97.76
2022-12-05T01:23:01.564Z,97.76
2022-12-05T01:25:05.186Z,98.47
2022-12-05T01:27:09.594Z,97.63
2022-12-05T01:29:15.087Z,98.27
2022-12-05T01:31:20.270Z,97.89
2022-12-05T01:33:23.206Z,98.24
2022-12-05T01:35:26.162Z,98.32
2022-12-05T01:37:29.145Z,98.96
2022-12-05T01:39:32.097Z,99.12
2022-12-05T01:41:38.236Z,99.03
2022-12-05T01:44:02.826Z,98.93
2022-12-05T01:46:07.157Z,99.21
2022-12-05T01:48:13.741Z,98.61
2022-12-05T01:50:16.653Z,98.40
2022-12-05T01:52:22.855Z,99.51
2022-12-05T01:54:25.971Z,99.00
2022-12-05T01:56:29.005Z,97.94
2022-12-05T01:58:37.324Z,98.11
2022-12-05T02:00:41.759Z,98.54
2022-12-05T02:02:47.912Z,98.18
2022-12-05T02:04:56.116Z,98.16
2022-12-05T02:06:59.151Z,98.11
2022-12-05T02:09:02.419Z,97.69
2022-12-05T02:11:07.894Z,97.55
2022-12-05T02:13:26.686Z,97.78
2022-12-05T02:15:38.049Z,97.71
2022-12-05T02:17:50.395Z,97.94
2022-12-05T02:20:04.522Z,97.20
2022-12-05T02:22:39.227Z,96.89
2022-12-05T02:25:10.405Z,96.74
2022-12-05T02:27:33.259Z,96.83
2022-12-05T02:30:11.807Z,96.51
2022-12-05T02:32:19.410Z,95.69
2022-12-05T02:34:27.915Z,95.27
2022-12-05T02:36:36.424Z,95.35
2022-12-05T02:38:43.133Z,95.66
2022-12-05T02:40:53.022Z,95.31
2022-12-05T02:43:00.996Z,94.91
2022-12-05T02:45:09.815Z,94.50
2022-12-05T02:47:16.411Z,94.70
2022-12-05T02:49:22.773Z,94.33
2022-12-05T02:51:29.252Z,94.13
2022-12-05T02:53:32.689Z,94.23
2022-12-05T02:55:36.683Z,93.64
2022-12-05T02:57:39.994Z,94.48
2022-12-05T02:59:43.018Z,94.23
2022-12-05T03:01:47.603Z,94.34
2022-12-05T03:03:52.430Z,94.03
2022-12-05T03:06:01.206Z,93.97
2022-12-05T03:08:05.925Z,93.95
2022-12-05T03:10:09.541Z,94.20
2022-12-05T03:12:17.150Z,93.52
2022-12-05T03:14:22.883Z,93.92
2022-12-05T03:16:30.401Z,94.06
2022-12-05T03:18:36.613Z,94.38
2022-12-05T03:20:45.577Z,94.67
2022-12-05T03:22:51.150Z,94.46
2022-12-05T03:24:54.756Z,94.32
2022-12-05T03:27:03.264Z,94.16
2022-12-05T03:29:18.962Z,94.26
2022-12-05T03:31:34.515Z,93.76
2022-12-05T03:33:42.793Z,93.56
2022-12-05T03:35:50.789Z,93.50
2022-12-05T03:37:58.336Z,93.28
2022-12-05T03:40:07.460Z,93.30
2022-12-05T03:42:14.010Z,93.25
2022-12-05T03:44:20.328Z,93.58
2022-12-05T03:46:26.033Z,94.04
2022-12-05T03:48:31.742Z,94.34
2022-12-05T03:50:36.375Z,94.77
2022-12-05T03:53:17.519Z,94.90
2022-12-05T03:55:10.085Z,94.79
2022-12-05T03:57:16.473Z,95.01
2022-12-05T03:59:22.652Z,95.87
2022-12-05T04:01:28.469Z,95.19
2022-12-05T04:03:39.692Z,94.86
2022-12-05T04:05:46.129Z,94.96
2022-12-05T04:07:53.959Z,94.93
2022-12-05T04:10:00.413Z,94.64
2022-12-05T04:12:06.026Z,94.71
2022-12-05T04:14:11.894Z,94.62
2022-12-05T04:16:36.006Z,94.13
2022-12-05T04:18:43.253Z,93.50
2022-12-05T04:21:03.898Z,93.55
2022-12-05T04:23:08.969Z,93.56
2022-12-05T04:25:31.445Z,94.24
2022-12-05T04:27:40.215Z,94.73
2022-12-05T04:29:47.651Z,94.79
2022-12-05T04:31:54.472Z,95.27
2022-12-05T04:34:01.335Z,95.26
2022-12-05T04:36:09.091Z,95.27
2022-12-05T04:38:16.495Z,95.00
2022-12-05T04:40:21.463Z,94.78
2022-12-05T04:42:27.555Z,94.71
2022-12-05T04:44:32.988Z,94.24
2022-12-05T04:46:36.914Z,94.98
2022-12-05T04:48:41.089Z,94.74
2022-12-05T04:50:46.226Z,94.50
2022-12-05T04:52:51.867Z,94.64
2022-12-05T04:54:59.003Z,94.45
2022-12-05T04:57:06.307Z,94.35
2022-12-05T04:59:09.276Z,94.02
2022-12-05T05:01:15.775Z,94.04
2022-12-05T05:03:23.076Z,94.10
2022-12-05T05:05:26.603Z,93.79
2022-12-05T05:07:30.041Z,94.18
2022-12-05T05:09:33.112Z,94.64
2022-12-05T05:11:37.707Z,94.57
2022-12-05T05:13:40.685Z,94.69
2022-12-05T05:15:43.722Z,94.89
2022-12-05T05:17:46.664Z,94.47
2022-12-05T05:19:49.737Z,93.96
2022-12-05T05:21:53.249Z,94.09
2022-12-05T05:23:56.672Z,94.12
2022-12-05T05:25:59.781Z,94.07
2022-12-05T05:28:04.289Z,93.78
2022-12-05T05:30:08.634Z,93.89
2022-12-05T05:32:11.956Z,93.66
2022-12-05T05:34:16.923Z,94.12
2022-12-05T05:36:20.574Z,93.46
2022-12-05T05:38:23.640Z,93.37
2022-12-05T05:40:26.723Z,93.56
2022-12-05T05:42:29.712Z,94.35
2022-12-05T05:44:34.180Z,94.01
2022-12-05T05:46:37.421Z,93.43
2022-12-05T05:48:40.816Z,93.25
2022-12-05T05:50:43.798Z,93.33
2022-12-05T05:52:47.429Z,93.82
2022-12-05T05:54:50.365Z,93.52
2022-12-05T05:56:53.391Z,93.71
2022-12-05T05:58:58.332Z,93.85
2022-12-05T06:01:05.466Z,94.11
2022-12-05T06:03:09.508Z,94.66
2022-12-05T06:05:12.571Z,94.91
2022-12-05T06:07:15.624Z,94.62
2022-12-05T06:09:18.558Z,94.80
2022-12-05T06:11:26.181Z,95.11
2022-12-05T06:13:29.638Z,94.38
2022-12-05T06:15:32.561Z,94.44
2022-12-05T06:17:37.071Z,94.66
2022-12-05T06:19:40.095Z,94.35
2022-12-05T06:21:43.115Z,94.33
2022-12-05T06:23:46.323Z,94.28
2022-12-05T06:25:49.968Z,94.14
2022-12-05T06:27:52.951Z,94.19
2022-12-05T06:29:56.119Z,93.48
2022-12-05T06:31:59.465Z,93.99
2022-12-05T06:34:05.407Z,94.24
2022-12-05T06:36:10.654Z,94.36
2022-12-05T06:38:13.637Z,94.92
2022-12-05T06:40:16.720Z,95.05
2022-12-05T06:42:22.208Z,95.60
2022-12-05T06:44:26.941Z,95.85
2022-12-05T06:46:30.040Z,95.81
2022-12-05T06:48:33.087Z,95.53
2022-12-05T06:50:37.457Z,95.79
2022-12-05T06:52:40.430Z,95.61
2022-12-05T06:54:43.404Z,95.78
2022-12-05T06:56:46.389Z,95.21
2022-12-05T06:58:52.433Z,95.10
2022-12-05T07:01:13.601Z,95.29
2022-12-05T07:03:16.621Z,95.15
2022-12-05T07:05:19.802Z,95.57
2022-12-05T07:07:24.133Z,95.69
2022-12-05T07:09:45.982Z,95.68
2022-12-05T07:11:49.385Z,95.08
2022-12-05T07:13:52.411Z,95.46
2022-12-05T07:15:55.338Z,95.69
2022-12-05T07:17:58.332Z,96.14
2022-12-05T07:20:01.412Z,96.16
2022-12-05T07:22:04.774Z,95.57
2022-12-05T07:24:09.180Z,96.08
2022-12-05T07:26:13.589Z,96.65
2022-12-05T07:28:16.551Z,96.62
2022-12-05T07:30:19.685Z,96.26
2022-12-05T07:32:22.702Z,96.84
2022-12-05T07:34:26.307Z,96.67
2022-12-05T07:36:29.411Z,96.58
2022-12-05T07:38:32.443Z,96.49
2022-12-05T07:40:38.616Z,95.98
2022-12-05T07:42:41.645Z,96.52
2022-12-05T07:44:44.676Z,96.34
2022-12-05T07:46:47.730Z,95.28
2022-12-05T07:48:52.343Z,95.36
2022-12-05T07:50:55.250Z,96.20
2022-12-05T07:52:58.204Z,96.15
2022-12-05T07:55:01.255Z,95.59
2022-12-05T07:57:05.753Z,95.52
2022-12-05T07:59:08.725Z,95.50
2022-12-05T08:01:13.380Z,95.38
2022-12-05T08:03:16.465Z,95.04
2022-12-05T08:05:20.469Z,94.76
2022-12-05T08:07:23.612Z,94.83
2022-12-05T08:09:27.625Z,94.78
2022-12-05T08:11:35.264Z,95.57
2022-12-05T08:13:39.641Z,95.97
2022-12-05T08:15:42.759Z,95.99
2022-12-05T08:17:45.815Z,96.36
2022-12-05T08:19:48.823Z,96.59
2022-12-05T08:21:52.449Z,96.26
2022-12-05T08:23:55.832Z,96.29
2022-12-05T08:26:03.125Z,95.82
2022-12-05T08:28:06.393Z,96.22
2022-12-05T08:30:11.224Z,96.02
2022-12-05T08:32:14.233Z,95.83
2022-12-05T08:34:19.912Z,95.45
2022-12-05T08:36:22.951Z,95.15
2022-12-05T08:38:26.144Z,95.51
2022-12-05T08:40:29.153Z,95.78
2022-12-05T08:42:32.650Z,95.63
2022-12-05T08:44:35.802Z,95.53
2022-12-05T08:46:40.289Z,95.22
2022-12-05T08:48:43.418Z,95.29
2022-12-05T08:50:46.455Z,95.73
2022-12-05T08:52:49.483Z,94.86
2022-12-05T08:54:53.038Z,95.30
2022-12-05T08:56:56.127Z,95.67
2022-12-05T08:59:05.274Z,95.49
2022-12-05T09:01:11.000Z,95.82
2022-12-05T09:03:15.720Z,95.41
2022-12-05T09:05:28.269Z,95.21
2022-12-05T09:07:31.971Z,95.56
2022-12-05T09:09:35.426Z,94.85
2022-12-05T09:11:40.845Z,95.33
2022-12-05T09:13:44.329Z,95.66
2022-12-05T09:15:47.535Z,95.07
2022-12-05T09:17:50.564Z,95.17
2022-12-05T09:19:55.021Z,94.92
2022-12-05T09:21:58.308Z,94.83
2022-12-05T09:24:01.924Z,93.64
2022-12-05T09:26:05.317Z,94.17
2022-12-05T09:28:08.269Z,95.14
2022-12-05T09:30:12.082Z,93.74
2022-12-05T09:32:15.051Z,94.43
2022-12-05T09:34:20.112Z,94.40
2022-12-05T09:36:26.627Z,94.07
2022-12-05T09:38:29.969Z,93.62
2022-12-05T09:40:33.206Z,93.42
2022-12-05T09:42:41.495Z,93.25
2022-12-05T09:45:00.438Z,93.75
2022-12-05T09:47:08.437Z,93.54
2022-12-05T09:49:12.596Z,94.31
2022-12-05T09:51:15.722Z,93.80
2022-12-05T09:53:27.297Z,93.34
2022-12-05T09:55:36.864Z,93.58
2022-12-05T09:57:44.417Z,93.70
2022-12-05T09:59:47.586Z,93.37
2022-12-05T10:01:56.856Z,92.90
2022-12-05T10:04:18.046Z,93.82
2022-12-05T10:06:25.190Z,93.65
2022-12-05T10:08:33.163Z,92.16
2022-12-05T10:10:46.402Z,93.06
2022-12-05T10:13:00.645Z,93.64
2022-12-05T10:15:09.782Z,93.63
2022-12-05T10:17:18.072Z,93.34
2022-12-05T10:19:26.663Z,91.97
2022-12-05T10:21:32.645Z,92.54
2022-12-05T10:23:57.165Z,92.43
2022-12-05T10:26:04.599Z,93.18
2022-12-05T10:28:13.812Z,93.32
2022-12-05T10:30:19.119Z,93.13
2022-12-05T10:32:26.961Z,93.88
2022-12-05T10:34:33.324Z,93.11
2022-12-05T10:36:36.380Z,93.28
2022-12-05T10:38:42.070Z,95.28
2022-12-05T10:40:47.589Z,94.09
2022-12-05T10:42:51.550Z,95.56
2022-12-05T10:44:58.760Z,94.63
2022-12-05T10:47:02.814Z,94.22
2022-12-05T10:49:11.124Z,95.06
2022-12-05T10:51:15.963Z,95.70
2022-12-05T10:53:22.578Z,95.32
2022-12-05T10:55:31.108Z,94.38
2022-12-05T10:57:34.188Z,95.37
2022-12-05T10:59:47.109Z,94.98
2022-12-05T11:01:52.860Z,94.73
2022-12-05T11:03:58.434Z,96.18
2022-12-05T11:06:03.154Z,95.70
2022-12-05T11:08:06.922Z,95.03
2022-12-05T11:10:26.666Z,96.66
2022-12-05T11:12:38.074Z,95.72
2022-12-05T11:14:41.337Z,94.58
2022-12-05T11:16:53.659Z,95.63
2022-12-05T11:18:56.725Z,93.83
2022-12-05T11:21:11.036Z,94.93
2022-12-05T11:23:24.427Z,94.13
2022-12-05T11:25:33.779Z,95.20
2022-12-05T11:27:38.180Z,94.10
2022-12-05T11:29:41.278Z,95.78
2022-12-05T11:31:52.290Z,94.93
2022-12-05T11:34:16.068Z,93.62
2022-12-05T11:36:21.089Z,92.63
2022-12-05T11:38:28.277Z,92.11
2022-12-05T11:40:38.629Z,92.86
2022-12-05T11:42:57.650Z,92.63
2022-12-05T11:45:11.550Z,94.31
2022-12-05T11:47:21.051Z,93.26
2022-12-05T11:49:41.299Z,93.21
2022-12-05T11:51:50.441Z,92.41
2022-12-05T11:54:13.430Z,94.19
2022-12-05T11:56:25.573Z,93.87
2022-12-05T11:58:49.346Z,92.91
2022-12-05T12:01:03.264Z,94.56
2022-12-05T12:03:32.575Z,95.10
2022-12-05T12:05:40.165Z,94.10
2022-12-05T12:07:58.357Z,93.20
2022-12-05T12:10:10.440Z,93.28
2022-12-05T12:12:19.900Z,93.56
2022-12-05T12:14:30.895Z,93.94
2022-12-05T12:16:37.914Z,94.58
2022-12-05T12:18:56.099Z,93.32
2022-12-05T12:21:06.786Z,91.93
2022-12-05T12:23:21.594Z,92.25
2022-12-05T12:25:37.382Z,93.41
2022-12-05T12:27:47.988Z,93.04
2022-12-05T12:29:59.926Z,94.45
2022-12-05T12:32:13.595Z,93.07
2022-12-05T12:34:37.324Z,92.58
2022-12-05T12:36:47.333Z,93.62
2022-12-05T12:39:08.759Z,92.75
2022-12-05T12:41:19.168Z,91.97
2022-12-05T12:43:53.069Z,92.19
2022-12-05T12:46:13.235Z,92.51
2022-12-05T12:48:29.343Z,92.66
2022-12-05T12:50:36.516Z,92.93
2022-12-05T12:52:55.001Z,93.17
2022-12-05T12:55:12.357Z,93.19
2022-12-05T12:57:23.958Z,92.04
2022-12-05T12:59:51.377Z,92.58
2022-12-05T13:01:59.496Z,92.08
2022-12-05T13:04:09.468Z,91.81
2022-12-05T13:06:16.290Z,91.15
2022-12-05T13:08:24.760Z,91.32
2022-12-05T13:10:33.015Z,91.82
2022-12-05T13:12:39.250Z,92.08
2022-12-05T13:14:47.282Z,91.25
2022-12-05T13:16:53.105Z,90.97
2022-12-05T13:18:57.967Z,90.43
2022-12-05T13:21:04.655Z,90.65
2022-12-05T13:23:09.197Z,91.71
2022-12-05T13:25:15.822Z,91.28
2022-12-05T13:27:20.181Z,90.67
2022-12-05T13:29:28.190Z,91.58
2022-12-05T13:31:39.119Z,92.09
2022-12-05T13:33:45.232Z,91.54
2022-12-05T13:36:06.897Z,91.73
2022-12-05T13:38:40.108Z,91.59
2022-12-05T13:41:09.117Z,91.30
2022-12-05T13:43:13.020Z,92.46
2022-12-05T13:45:18.580Z,91.85
2022-12-05T13:47:29.414Z,92.48
2022-12-05T13:49:37.674Z,91.39
2022-12-05T13:51:44.308Z,91.80
2022-12-05T13:53:49.548Z,92.84
2022-12-05T13:55:58.363Z,92.19
2022-12-05T13:58:02.068Z,93.68
2022-12-05T14:00:07.497Z,93.07
2022-12-05T14:02:51.233Z,93.33
2022-12-05T14:04:54.332Z,92.51
2022-12-05T14:06:59.433Z,93.81
2022-12-05T14:09:03.181Z,92.69
2022-12-05T14:11:11.474Z,93.13
2022-12-05T14:13:42.509Z,93.23
2022-12-05T14:15:46.534Z,94.08
2022-12-05T14:17:50.212Z,92.57
2022-12-05T14:20:06.134Z,93.60
2022-12-05T14:22:28.151Z,92.86
2022-12-05T14:24:34.500Z,92.11
2022-12-05T14:26:47.934Z,92.95
2022-12-05T14:29:01.950Z,92.06
2022-12-05T14:31:18.449Z,91.78
2022-12-05T14:33:23.640Z,92.11
2022-12-05T14:35:30.244Z,91.78
2022-12-05T14:37:37.748Z,91.78
2022-12-05T14:39:43.716Z,91.88
2022-12-05T14:41:47.588Z,93.09
2022-12-05T14:43:53.880Z,93.34
2022-12-05T14:46:03.536Z,92.44
2022-12-05T14:48:08.042Z,92.67
2022-12-05T14:50:35.492Z,92.47
2022-12-05T14:52:41.117Z,91.96
2022-12-05T14:54:44.827Z,93.05
2022-12-05T14:56:50.955Z,92.86
2022-12-05T14:58:57.427Z,93.09
2022-12-05T15:01:02.271Z,92.52
2022-12-05T15:03:06.238Z,92.80
2022-12-05T15:05:21.740Z,93.99
2022-12-05T15:07:34.250Z,94.15
2022-12-05T15:09:55.120Z,93.80
2022-12-05T15:11:58.728Z,93.65
2022-12-05T15:14:06.739Z,93.88
2022-12-05T15:16:16.709Z,95.27
2022-12-05T15:18:23.180Z,95.12
2022-12-05T15:20:34.371Z,94.73
2022-12-05T15:22:41.642Z,94.59
2022-12-05T15:24:46.604Z,94.49
2022-12-05T15:26:51.886Z,94.92
2022-12-05T15:29:03.643Z,94.38
2022-12-05T15:31:08.111Z,93.64
2022-12-05T15:33:12.947Z,94.89
2022-12-05T15:35:16.922Z,95.10
2022-12-05T15:37:22.354Z,93.80
2022-12-05T15:39:28.687Z,94.98
2022-12-05T15:41:33.196Z,94.21
2022-12-05T15:43:37.418Z,95.36
2022-12-05T15:45:40.655Z,94.21
2022-12-05T15:47:45.978Z,95.42
2022-12-05T15:49:49.043Z,94.34
2022-12-05T15:51:54.983Z,94.64
2022-12-05T15:54:01.844Z,95.60
2022-12-05T15:56:07.104Z,95.33
2022-12-05T15:58:16.891Z,94.55
2022-12-05T16:00:22.211Z,95.64
2022-12-05T16:02:30.310Z,94.09
2022-12-05T16:04:36.805Z,94.35
2022-12-05T16:06:42.308Z,94.24
2022-12-05T16:08:46.477Z,95.84
2022-12-05T16:10:49.683Z,94.31
2022-12-05T16:12:53.560Z,93.96
2022-12-05T16:15:01.726Z,94.43
2022-12-05T16:17:06.599Z,94.06
2022-12-05T16:19:15.751Z,94.21
2022-12-05T16:21:38.849Z,95.20
2022-12-05T16:23:44.043Z,95.57
2022-12-05T16:25:47.167Z,95.42
2022-12-05T16:27:58.342Z,95.10
2022-12-05T16:30:10.996Z,95.75
2022-12-05T16:32:19.908Z,95.49
2022-12-05T16:34:23.042Z,95.61
2022-12-05T16:36:26.139Z,95.31
2022-12-05T16:38:30.001Z,95.98
2022-12-05T16:40:33.146Z,94.54
2022-12-05T16:42:37.394Z,95.97
2022-12-05T16:45:04.661Z,94.69
2022-12-05T16:47:19.139Z,95.70
2022-12-05T16:49:42.808Z,94.50
2022-12-05T16:51:56.321Z,94.41
2022-12-05T16:53:59.868Z,94.63
2022-12-05T16:56:05.347Z,95.02
2022-12-05T16:58:13.282Z,95.96
2022-12-05T17:00:17.040Z,95.96
2022-12-05T17:02:21.619Z,95.87
2022-12-05T17:04:24.837Z,95.27
2022-12-05T17:06:28.106Z,96.17
2022-12-05T17:08:31.360Z,95.37
2022-12-05T17:10:35.150Z,95.85
2022-12-05T17:12:39.458Z,96.53
2022-12-05T17:14:44.347Z,97.02
2022-12-05T17:16:48.124Z,97.58
2022-12-05T17:18:53.037Z,97.27
2022-12-05T17:20:57.344Z,96.90
2022-12-05T17:23:01.033Z,97.38
2022-12-05T17:25:04.364Z,96.01
2022-12-05T17:27:07.626Z,96.87
2022-12-05T17:29:11.576Z,96.60
2022-12-05T17:31:17.124Z,97.41
2022-12-05T17:33:23.560Z,96.63
2022-12-05T17:35:30.672Z,96.74
2022-12-05T17:37:33.811Z,96.60
2022-12-05T17:39:36.960Z,96.58
2022-12-05T17:41:40.215Z,97.06
2022-12-05T17:43:43.686Z,96.24
2022-12-05T17:45:47.793Z,96.59
2022-12-05T17:47:51.238Z,96.09
2022-12-05T17:49:54.383Z,95.77
2022-12-05T17:52:21.049Z,96.65
2022-12-05T17:54:23.481Z,95.88
2022-12-05T17:56:27.378Z,95.43
2022-12-05T17:58:30.510Z,95.34
2022-12-05T18:00:33.822Z,95.39
2022-12-05T18:02:37.092Z,95.23
2022-12-05T18:04:40.099Z,96.25
2022-12-05T18:06:43.233Z,94.89
2022-12-05T18:08:47.739Z,95.21
2022-12-05T18:10:51.808Z,95.90
2022-12-05T18:12:55.412Z,94.65
2022-12-05T18:14:58.990Z,95.27
2022-12-05T18:17:02.547Z,95.38
2022-12-05T18:19:08.455Z,95.54
2022-12-05T18:21:13.380Z,95.69
2022-12-05T18:23:16.493Z,95.46
2022-12-05T18:25:21.396Z,95.39
2022-12-05T18:27:25.299Z,95.77
2022-12-05T18:29:28.472Z,97.00
2022-12-05T18:31:31.658Z,95.38
2022-12-05T18:33:36.423Z,96.01
2022-12-05T18:35:41.796Z,95.36
2022-12-05T18:37:44.808Z,95.79
2022-12-05T18:39:47.903Z,96.88
2022-12-05T18:41:52.377Z,96.12
2022-12-05T18:43:55.801Z,95.71
2022-12-05T18:46:00.000Z,96.13
2022-12-05T18:48:37.772Z,96.43
2022-12-05T18:50:26.625Z,95.33
2022-12-05T18:52:29.763Z,96.64
2022-12-05T18:54:32.911Z,96.21
2022-12-05T18:56:38.243Z,96.68
2022-12-05T18:58:42.668Z,96.69
2022-12-05T19:00:45.782Z,95.44
2022-12-05T19:02:49.710Z,95.68
2022-12-05T19:04:52.860Z,96.50
2022-12-05T19:06:57.707Z,96.41
2022-12-05T19:09:02.371Z,96.28
2022-12-05T19:11:05.695Z,96.23
2022-12-05T19:13:09.429Z,95.03
2022-12-05T19:15:13.914Z,95.59
2022-12-05T19:17:17.289Z,96.08
2022-12-05T19:19:21.182Z,95.17
2022-12-05T19:21:24.909Z,95.63
2022-12-05T19:23:28.597Z,97.21
2022-12-05T19:25:32.692Z,96.72
2022-12-05T19:27:36.286Z,97.19
2022-12-05T19:29:40.170Z,96.79
2022-12-05T19:31:45.707Z,96.03
2022-12-05T19:33:50.717Z,96.24
2022-12-05T19:35:53.791Z,96.13
2022-12-05T19:37:57.471Z,96.26
2022-12-05T19:40:00.691Z,95.69
2022-12-05T19:42:04.023Z,95.56
2022-12-05T19:44:07.313Z,95.44
2022-12-05T19:46:12.756Z,97.05
2022-12-05T19:48:22.654Z,96.92
2022-12-05T19:50:25.966Z,95.72
2022-12-05T19:52:31.448Z,95.83
2022-12-05T19:54:34.587Z,96.79
2022-12-05T19:56:38.130Z,96.57
2022-12-05T19:58:42.134Z,96.24
2022-12-05T20:00:45.564Z,96.18
2022-12-05T20:02:50.479Z,96.04
2022-12-05T20:04:55.075Z,96.62
2022-12-05T20:06:58.499Z,96.98
2022-12-05T20:09:01.995Z,95.86
2022-12-05T20:11:06.384Z,96.08
2022-12-05T20:13:38.542Z,96.30
2022-12-05T20:15:34.061Z,95.74
2022-12-05T20:17:37.146Z,96.00
2022-12-05T20:19:40.303Z,96.42
2022-12-05T20:21:44.972Z,95.29
2022-12-05T20:23:48.025Z,95.53
2022-12-05T20:25:51.141Z,96.00
2022-12-05T20:27:54.219Z,96.43
2022-12-05T20:29:57.534Z,95.72
2022-12-05T20:32:00.871Z,95.50
2022-12-05T20:34:04.598Z,95.64
2022-12-05T20:36:09.994Z,95.51
2022-12-05T20:38:14.830Z,96.43
2022-12-05T20:40:18.126Z,95.55
2022-12-05T20:42:21.238Z,96.83
2022-12-05T20:44:24.415Z,96.38
2022-12-05T20:46:28.372Z,96.66
2022-12-05T20:48:31.533Z,96.32
2022-12-05T20:50:35.622Z,96.68
2022-12-05T20:52:43.583Z,96.41
2022-12-05T20:54:52.179Z,96.38
2022-12-05T20:56:55.426Z,96.63
2022-12-05T20:59:00.172Z,96.92
2022-12-05T21:01:05.774Z,96.91
2022-12-05T21:03:12.846Z,96.51
2022-12-05T21:05:18.835Z,97.41
2022-12-05T21:07:21.890Z,97.44
2022-12-05T21:09:28.587Z,96.21
2022-12-05T21:11:33.311Z,95.86
2022-12-05T21:13:36.725Z,95.89
2022-12-05T21:15:39.952Z,96.23
2022-12-05T21:17:43.012Z,97.07
2022-12-05T21:19:46.454Z,97.30
2022-12-05T21:21:49.673Z,97.31
2022-12-05T21:23:54.730Z,96.43
2022-12-05T21:26:02.323Z,96.33
2022-12-05T21:28:06.807Z,97.69
2022-12-05T21:30:11.032Z,96.82
2022-12-05T21:32:14.024Z,97.53
2022-12-05T21:34:20.195Z,97.57
2022-12-05T21:36:24.103Z,97.46
2022-12-05T21:38:27.150Z,96.34
2022-12-05T21:40:30.179Z,97.02
2022-12-05T21:42:33.611Z,97.25
2022-12-05T21:44:38.537Z,96.67
2022-12-05T21:46:41.665Z,96.12
2022-12-05T21:48:45.263Z,97.08
2022-12-05T21:50:48.383Z,96.67
2022-12-05T21:52:51.926Z,97.42
2022-12-05T21:54:56.677Z,97.07
2022-12-05T21:56:59.752Z,96.69
2022-12-05T21:59:03.237Z,96.99
2022-12-05T22:01:08.522Z,96.58
2022-12-05T22:03:14.863Z,96.12
2022-12-05T22:05:18.836Z,96.59
2022-12-05T22:07:22.126Z,96.53
2022-12-05T22:09:25.187Z,97.17
2022-12-05T22:11:28.439Z,96.94
2022-12-05T22:13:31.933Z,96.49
2022-12-05T22:15:35.077Z,96.57
2022-12-05T22:17:39.749Z,97.29
2022-12-05T22:19:43.289Z,96.97
2022-12-05T22:21:46.324Z,96.81
2022-12-05T22:23:50.825Z,97.08
2022-12-05T22:25:58.645Z,96.97
2022-12-05T22:28:01.724Z,96.09
2022-12-05T22:30:06.278Z,95.84
2022-12-05T22:32:10.500Z,95.66
2022-12-05T22:34:15.108Z,96.01
2022-12-05T22:36:19.408Z,95.81
2022-12-05T22:38:22.372Z,97.07
2022-12-05T22:40:25.580Z,96.49
2022-12-05T22:42:28.601Z,97.03
2022-12-05T22:44:31.721Z,97.43
2022-12-05T22:46:34.883Z,97.54
2022-12-05T22:48:37.997Z,97.69
2022-12-05T22:50:47.108Z,97.65
2022-12-05T22:52:50.160Z,96.77
2022-12-05T22:54:53.219Z,96.78
2022-12-05T22:56:56.225Z,96.89
2022-12-05T22:59:00.807Z,97.57
2022-12-05T23:01:11.145Z,97.40
2022-12-05T23:03:15.251Z,97.73
2022-12-05T23:05:18.610Z,97.44
2022-12-05T23:07:23.264Z,97.18
2022-12-05T23:09:27.013Z,97.36
2022-12-05T23:11:30.819Z,97.66
2022-12-05T23:13:35.495Z,97.23
2022-12-05T23:15:38.931Z,97.59
2022-12-05T23:17:42.930Z,96.81
2022-12-05T23:19:46.176Z,97.35
2022-12-05T23:21:49.185Z,96.48
2022-12-05T23:23:54.809Z,97.41
2022-12-05T23:25:58.060Z,97.18
2022-12-05T23:28:01.126Z,96.72
2022-12-05T23:30:04.356Z,97.08
2022-12-05T23:32:09.549Z,96.97
2022-12-05T23:34:13.132Z,96.57
2022-12-05T23:36:16.404Z,96.67
2022-12-05T23:38:19.367Z,96.12
2022-12-05T23:40:23.784Z,96.19
2022-12-05T23:42:27.105Z,96.54
2022-12-05T23:44:30.142Z,95.78
2022-12-05T23:46:33.285Z,96.29
2022-12-05T23:48:36.777Z,96.63
2022-12-05T23:50:39.844Z,96.17
2022-12-05T23:52:42.829Z,96.20
2022-12-05T23:54:46.076Z,96.39
2022-12-05T23:56:50.441Z,96.68
2022-12-05T23:58:54.676Z,96.56
